Kezdőlap
METAR-TAF:

METAR-TAF

Repülőterek :

Tateyama, Japán

földrajzi szélesség: 34-59N, földrajzi hosszúság: 139-50E, magasság: 3 m

Jelenlegi meteorológiai megfigyelések

A jelentés 21 órával és 3 perccel ezelõtt készült, 04:09 UTC
Délnyugati szél 15 kt széllökések: 25 kt, déli és nyugat-délnyugati között változik
Hőmérséklet 30°C
Páratartalom 94%
Légköri nyomás 1008 hPa
Látótávolság 10 km, vagy több
Kevés felhő 1500 lábon
Szakadozott felhőzet

METAR: RJTE 200409Z 22015G25KT 180V250 9999 FEW015 BKN/// 30/29 Q1008 RMK 1CU015 A2977

Idő: 10:12 (01:12 UTC)


TAF: hiányzik

Meteorológiai megfigyelések és előrejelzések több, mint 4000 repülőtéren (METAR és TAF jelentéseket).

A térképen piros és sárga pontok jelzik az elérhető meteorológiai állomásokat.

Mozgassa az egeret a pont fölött, hogy megjelenjen az állomás neve.

Azután kattintson az időjárási megfigyelések és előrejelzések megtekintéséhez.

A térkép megváltoztatása: kattintson a fekete keresztel jelölt zöld gombra ráközelítéshez, a vonallal jelölt zöld gombra távolításhoz, vagy a zöld nyilakra a szomszédos térképek eléréséhez.


METAR-TAF: